Time;durP1;ratioP1;P1;durP2;ratioP2;P2;SDS_P1;SDS_P2;PMS_P1;PMS_P2;Temp;Humidity;BMP_temperature;BMP_pressure;BME280_temperature;BME280_humidity;BME280_pressure;Samples;Min_cycle;Max_cycle;Signal;HPM_P1;HPM_P2
2021/08/28 00:01:42;;;;;;;3.17;1.30;;;;;;;;;;5036347;28;20139;-86
2021/08/28 00:04:07;;;;;;;7.13;1.25;;;;;;;;;;5052969;28;20079;-86
2021/08/28 00:06:32;;;;;;;2.53;1.25;;;;;;;;;;5036015;28;20036;-85
2021/08/28 00:08:58;;;;;;;3.63;1.70;;;;;;;;;;5052604;28;20036;-86
2021/08/28 00:11:23;;;;;;;4.40;1.45;;;;;;;;;;5025359;28;20506;-86
2021/08/28 00:13:49;;;;;;;9.07;2.10;;;;;;;;;;5032288;28;20033;-86
2021/08/28 00:16:17;;;;;;;1.85;1.70;;;;;;;;;;5032841;28;20175;-87
2021/08/28 00:18:43;;;;;;;6.03;2.25;;;;;;;;;;5016438;28;20037;-86
2021/08/28 00:21:09;;;;;;;6.88;1.83;;;;;;;;;;5016070;28;20509;-87
2021/08/28 00:23:35;;;;;;;8.63;2.00;;;;;;;;;;5032952;28;20033;-87
2021/08/28 00:26:02;;;;;;;4.20;1.90;;;;;;;;;;5016057;28;20056;-87
2021/08/28 00:28:28;;;;;;;6.00;1.70;;;;;;;;;;5016327;28;20096;-87
2021/08/28 00:30:58;;;;;;;2.03;1.75;;;;;;;;;;5016576;28;20398;-86
2021/08/28 00:33:26;;;;;;;4.45;1.40;;;;;;;;;;5016195;28;20049;-87
2021/08/28 00:35:52;;;;;;;3.75;1.88;;;;;;;;;;5032560;28;20044;-87
2021/08/28 00:38:19;;;;;;;2.67;1.70;;;;;;;;;;5032686;28;20033;-87
2021/08/28 00:40:44;;;;;;;6.70;2.00;;;;;;;;;;5021318;28;20086;-86
2021/08/28 00:43:11;;;;;;;3.60;1.80;;;;;;;;;;5035494;28;20036;-86
2021/08/28 00:45:44;;;;;;;6.85;2.17;;;;;;;;;;5035926;28;20064;-87
2021/08/28 00:48:11;;;;;;;5.28;2.25;;;;;;;;;;5035855;28;20589;-86
2021/08/28 00:50:38;;;;;;;2.75;1.95;;;;;;;;;;5036395;28;20458;-86
2021/08/28 00:53:14;;;;;;;10.13;2.10;;;;;;;;;;5036332;28;20031;-86
2021/08/28 00:55:47;;;;;;;4.57;1.85;;;;;;;;;;5036329;28;20037;-87
2021/08/28 00:58:15;;;;;;;2.58;1.90;;;;;;;;;;5035910;28;20029;-87
2021/08/28 01:00:43;;;;;;;3.75;1.83;;;;;;;;;;5035508;28;20033;-86
2021/08/28 01:03:12;;;;;;;5.25;1.85;;;;;;;;;;5035719;28;20029;-87
2021/08/28 01:06:16;;;;;;;2.00;1.80;;;;;;;;;;5052126;28;20033;-86
2021/08/28 01:09:29;;;;;;;12.68;2.60;;;;;;;;;;5052145;28;20040;-86
2021/08/28 01:12:10;;;;;;;6.13;2.60;;;;;;;;;;5054805;28;20086;-86
2021/08/28 01:14:48;;;;;;;4.35;2.92;;;;;;;;;;5057696;28;20503;-86
2021/08/28 01:17:18;;;;;;;4.07;2.50;;;;;;;;;;5058543;28;20127;-86
2021/08/28 01:20:01;;;;;;;8.98;2.70;;;;;;;;;;5056480;28;20029;-86
2021/08/28 01:22:48;;;;;;;9.15;2.30;;;;;;;;;;5074738;28;20040;-86
2021/08/28 01:25:41;;;;;;;7.10;2.50;;;;;;;;;;5075265;28;20052;-86
2021/08/28 01:28:20;;;;;;;7.80;2.22;;;;;;;;;;5073799;28;20029;-86
2021/08/28 01:30:48;;;;;;;6.60;2.33;;;;;;;;;;5074414;28;20028;-86
2021/08/28 01:33:16;;;;;;;4.03;2.40;;;;;;;;;;5058690;28;20065;-86
2021/08/28 01:35:46;;;;;;;2.85;2.55;;;;;;;;;;5057139;28;20472;-86
2021/08/28 01:38:18;;;;;;;4.30;2.88;;;;;;;;;;5057644;28;20592;-86
2021/08/28 01:41:10;;;;;;;5.68;3.00;;;;;;;;;;5051082;28;20040;-86
2021/08/28 01:43:44;;;;;;;10.02;2.95;;;;;;;;;;5037196;28;20036;-86
2021/08/28 01:46:10;;;;;;;7.32;2.88;;;;;;;;;;5033122;28;20095;-86
2021/08/28 01:48:40;;;;;;;8.27;3.00;;;;;;;;;;5038618;28;20121;-87
2021/08/28 01:51:11;;;;;;;20.85;4.43;;;;;;;;;;5055822;28;20036;-86
2021/08/28 01:53:37;;;;;;;5.55;3.55;;;;;;;;;;5039463;28;20093;-87
2021/08/28 01:56:06;;;;;;;8.20;3.42;;;;;;;;;;5039116;28;20515;-86
2021/08/28 01:58:36;;;;;;;5.78;3.50;;;;;;;;;;5039243;28;20452;-87
2021/08/28 02:01:20;;;;;;;6.32;3.42;;;;;;;;;;5040806;28;20037;-87
2021/08/28 02:03:46;;;;;;;4.25;3.28;;;;;;;;;;5055416;28;20044;-86
2021/08/28 02:06:21;;;;;;;5.43;3.10;;;;;;;;;;5038926;28;20041;-87
2021/08/28 02:08:59;;;;;;;6.47;3.00;;;;;;;;;;5038591;28;20406;-87
2021/08/28 02:11:33;;;;;;;5.50;4.03;;;;;;;;;;5027715;28;20049;-86
2021/08/28 02:14:24;;;;;;;5.43;3.67;;;;;;;;;;5019135;28;20034;-86
2021/08/28 02:16:55;;;;;;;4.90;2.80;;;;;;;;;;5035173;28;20113;-86
2021/08/28 02:19:30;;;;;;;4.55;3.50;;;;;;;;;;5020688;28;20115;-85
2021/08/28 02:22:25;;;;;;;4.40;3.35;;;;;;;;;;5040197;28;20030;-85
2021/08/28 02:26:11;;;;;;;6.90;3.70;;;;;;;;;;5032324;28;20033;-85
2021/08/28 02:28:42;;;;;;;4.18;3.30;;;;;;;;;;5008148;28;20037;-85
2021/08/28 02:31:09;;;;;;;8.00;5.00;;;;;;;;;;5023785;28;20502;-85
2021/08/28 02:33:45;;;;;;;19.20;4.38;;;;;;;;;;5039278;28;20176;-83
2021/08/28 02:36:13;;;;;;;14.45;4.10;;;;;;;;;;5022228;28;20407;-83
2021/08/28 02:38:41;;;;;;;7.28;3.80;;;;;;;;;;5038414;28;20499;-83
2021/08/28 02:41:07;;;;;;;4.50;3.70;;;;;;;;;;5055633;28;20071;-84
2021/08/28 02:43:35;;;;;;;6.88;4.47;;;;;;;;;;5061549;28;20024;-83
2021/08/28 02:46:03;;;;;;;11.20;4.15;;;;;;;;;;5061938;28;20044;-83
2021/08/28 02:48:33;;;;;;;9.57;4.05;;;;;;;;;;5062021;28;20035;-83
2021/08/28 02:51:02;;;;;;;12.57;4.80;;;;;;;;;;5061852;28;20059;-84
2021/08/28 02:53:30;;;;;;;6.53;5.07;;;;;;;;;;5062042;28;20037;-85
2021/08/28 02:55:59;;;;;;;6.40;4.25;;;;;;;;;;5062340;28;20508;-85
2021/08/28 02:58:31;;;;;;;6.78;4.53;;;;;;;;;;5063789;28;20036;-85
2021/08/28 03:00:57;;;;;;;6.15;4.28;;;;;;;;;;5062834;28;20029;-85
2021/08/28 03:03:23;;;;;;;8.05;4.45;;;;;;;;;;5079459;28;20107;-85
2021/08/28 03:05:52;;;;;;;8.98;4.93;;;;;;;;;;5062469;28;20067;-83
2021/08/28 03:08:22;;;;;;;7.70;4.30;;;;;;;;;;5061227;28;20390;-85
2021/08/28 03:10:53;;;;;;;6.82;4.70;;;;;;;;;;5055337;28;20495;-85
2021/08/28 03:13:21;;;;;;;8.85;4.22;;;;;;;;;;5042262;28;20059;-84
2021/08/28 03:15:49;;;;;;;7.65;4.35;;;;;;;;;;5041865;28;20467;-85
2021/08/28 03:18:21;;;;;;;6.10;4.68;;;;;;;;;;5041849;28;20035;-84
2021/08/28 03:20:52;;;;;;;8.68;5.32;;;;;;;;;;5041633;28;20028;-84
2021/08/28 03:23:23;;;;;;;8.68;5.15;;;;;;;;;;5041580;28;20104;-83
2021/08/28 03:25:55;;;;;;;7.10;5.97;;;;;;;;;;5041445;28;20622;-83
2021/08/28 03:28:26;;;;;;;8.95;5.18;;;;;;;;;;5041775;28;20115;-83
2021/08/28 03:30:52;;;;;;;9.35;5.63;;;;;;;;;;5041463;28;20033;-82
2021/08/28 03:33:20;;;;;;;8.13;6.22;;;;;;;;;;5041645;28;20081;-83
2021/08/28 03:35:55;;;;;;;9.55;6.28;;;;;;;;;;5041736;28;20124;-82
2021/08/28 03:38:21;;;;;;;8.82;6.68;;;;;;;;;;5040263;28;20048;-83
2021/08/28 03:40:48;;;;;;;5.72;5.13;;;;;;;;;;5068451;28;20033;-82
2021/08/28 03:43:14;;;;;;;9.63;5.95;;;;;;;;;;5060765;28;20050;-82
2021/08/28 03:45:41;;;;;;;12.45;5.93;;;;;;;;;;5076720;28;20054;-82
2021/08/28 03:48:08;;;;;;;11.20;5.85;;;;;;;;;;5060207;28;20036;-82
2021/08/28 03:50:35;;;;;;;7.97;6.72;;;;;;;;;;5060057;28;20082;-82
2021/08/28 03:53:02;;;;;;;10.57;7.55;;;;;;;;;;5060218;28;20025;-82
2021/08/28 03:55:28;;;;;;;8.20;6.72;;;;;;;;;;5076795;28;20036;-82
2021/08/28 03:57:53;;;;;;;11.18;7.32;;;;;;;;;;5059543;28;20033;-82
2021/08/28 04:00:19;;;;;;;11.45;7.30;;;;;;;;;;5059881;28;20040;-82
2021/08/28 04:02:54;;;;;;;10.68;7.35;;;;;;;;;;5077515;28;20036;-82
2021/08/28 04:05:25;;;;;;;11.55;7.93;;;;;;;;;;5060632;28;20047;-82
2021/08/28 04:07:51;;;;;;;12.73;8.45;;;;;;;;;;5059994;28;20379;-81
2021/08/28 04:10:18;;;;;;;11.25;7.82;;;;;;;;;;5052271;28;20044;-82
2021/08/28 04:12:44;;;;;;;13.02;7.47;;;;;;;;;;5020327;28;20136;-83
2021/08/28 04:15:12;;;;;;;9.95;6.90;;;;;;;;;;5037355;28;20503;-83
2021/08/28 04:17:56;;;;;;;8.18;7.22;;;;;;;;;;5037554;28;20414;-84
2021/08/28 04:20:25;;;;;;;11.43;7.10;;;;;;;;;;5021657;28;20120;-85
2021/08/28 04:23:04;;;;;;;8.45;7.05;;;;;;;;;;5039212;28;20087;-85
2021/08/28 04:25:50;;;;;;;11.32;7.07;;;;;;;;;;5039938;28;20116;-85
2021/08/28 04:28:26;;;;;;;8.13;6.85;;;;;;;;;;5023549;28;20033;-84
2021/08/28 04:30:52;;;;;;;10.35;6.43;;;;;;;;;;5022473;28;20175;-85
2021/08/28 04:33:18;;;;;;;11.00;6.18;;;;;;;;;;5022004;28;20064;-85
2021/08/28 04:35:43;;;;;;;7.07;6.05;;;;;;;;;;5038854;28;20550;-84
2021/08/28 04:38:10;;;;;;;9.20;6.43;;;;;;;;;;5020803;28;20040;-83
2021/08/28 04:40:38;;;;;;;9.88;6.78;;;;;;;;;;5046297;28;20506;-82
2021/08/28 04:43:07;;;;;;;13.05;7.82;;;;;;;;;;5071469;28;20045;-82
2021/08/28 04:45:56;;;;;;;9.98;8.35;;;;;;;;;;5058776;28;20115;-82
2021/08/28 04:48:31;;;;;;;11.57;8.15;;;;;;;;;;5071076;28;20465;-82
2021/08/28 04:51:05;;;;;;;15.50;7.00;;;;;;;;;;5052549;28;20033;-82
2021/08/28 04:53:32;;;;;;;9.07;7.30;;;;;;;;;;5053990;28;20029;-82
2021/08/28 04:55:58;;;;;;;10.27;7.68;;;;;;;;;;5054485;28;20029;-82
2021/08/28 04:58:25;;;;;;;11.55;8.52;;;;;;;;;;5053018;28;20032;-82
2021/08/28 05:01:09;;;;;;;11.63;8.90;;;;;;;;;;5068286;28;20040;-82
2021/08/28 05:03:53;;;;;;;10.40;7.70;;;;;;;;;;5068765;28;20115;-82
2021/08/28 05:06:18;;;;;;;10.70;8.57;;;;;;;;;;5051386;28;20092;-82
2021/08/28 05:08:45;;;;;;;13.10;8.65;;;;;;;;;;5049165;28;20547;-83
2021/08/28 05:11:11;;;;;;;15.13;9.25;;;;;;;;;;5061578;28;20037;-82
2021/08/28 05:13:39;;;;;;;12.43;9.75;;;;;;;;;;5061247;28;20463;-84
2021/08/28 05:16:05;;;;;;;12.80;10.70;;;;;;;;;;5056197;28;20029;-84
2021/08/28 05:18:31;;;;;;;15.35;9.63;;;;;;;;;;5055960;28;20036;-85
2021/08/28 05:20:58;;;;;;;11.02;8.48;;;;;;;;;;5056082;28;20094;-85
2021/08/28 05:23:49;;;;;;;9.85;7.78;;;;;;;;;;5076855;28;20067;-85
2021/08/28 05:26:38;;;;;;;12.35;8.85;;;;;;;;;;5076746;28;20105;-85
2021/08/28 05:29:05;;;;;;;9.38;8.00;;;;;;;;;;5060503;28;20033;-85
2021/08/28 05:31:30;;;;;;;10.20;8.80;;;;;;;;;;5076711;28;20044;-85
2021/08/28 05:33:58;;;;;;;8.50;7.47;;;;;;;;;;5059317;28;20039;-85
2021/08/28 05:36:33;;;;;;;9.43;8.43;;;;;;;;;;5076302;28;20043;-85
2021/08/28 05:39:18;;;;;;;11.43;8.57;;;;;;;;;;5027709;28;20041;-85
2021/08/28 05:41:47;;;;;;;13.40;9.77;;;;;;;;;;5035813;28;20029;-85
2021/08/28 05:44:12;;;;;;;10.45;8.30;;;;;;;;;;5019561;28;20099;-85
2021/08/28 05:46:40;;;;;;;11.05;9.18;;;;;;;;;;5019684;28;20037;-85
2021/08/28 05:49:16;;;;;;;12.52;9.95;;;;;;;;;;5020845;28;20037;-85
2021/08/28 05:51:50;;;;;;;15.95;10.02;;;;;;;;;;5020497;28;20034;-85
2021/08/28 05:54:16;;;;;;;13.40;10.10;;;;;;;;;;5019174;28;20041;-85
2021/08/28 05:56:41;;;;;;;11.80;9.73;;;;;;;;;;5018602;28;20033;-85
2021/08/28 05:59:07;;;;;;;10.80;9.43;;;;;;;;;;5018953;28;20056;-86
2021/08/28 06:01:33;;;;;;;14.10;10.30;;;;;;;;;;5019127;28;20033;-86
2021/08/28 06:04:04;;;;;;;13.88;9.23;;;;;;;;;;5018972;28;20033;-86
2021/08/28 06:06:55;;;;;;;15.30;10.27;;;;;;;;;;5035362;28;20037;-86
2021/08/28 06:09:49;;;;;;;13.13;9.70;;;;;;;;;;5026859;28;20033;-86
2021/08/28 06:12:35;;;;;;;12.20;9.60;;;;;;;;;;5035689;28;20561;-86
2021/08/28 06:15:10;;;;;;;10.32;8.68;;;;;;;;;;5036965;28;20092;-86
2021/08/28 06:17:44;;;;;;;10.75;8.98;;;;;;;;;;5019668;28;20411;-86
2021/08/28 06:20:19;;;;;;;13.20;8.27;;;;;;;;;;5018897;28;20033;-86
2021/08/28 06:22:45;;;;;;;;;;;;;;;;;;5019568;28;20048;-87
2021/08/28 06:25:34;;;;;;;12.67;8.30;;;;;;;;;;5022980;28;19912;-85
2021/08/28 06:27:59;;;;;;;9.10;7.90;;;;;;;;;;5023996;28;20056;-83
2021/08/28 06:30:36;;;;;;;7.47;6.72;;;;;;;;;;5044315;28;20383;-85
2021/08/28 06:33:01;;;;;;;7.43;6.63;;;;;;;;;;5024209;28;20462;-85
2021/08/28 06:35:29;;;;;;;6.95;6.25;;;;;;;;;;5021626;28;20043;-84
2021/08/28 06:37:59;;;;;;;8.57;6.53;;;;;;;;;;5027443;28;20044;-84
2021/08/28 06:40:44;;;;;;;6.28;5.55;;;;;;;;;;5057489;28;20051;-83
2021/08/28 06:43:17;;;;;;;6.03;5.43;;;;;;;;;;5059506;28;20064;-83
2021/08/28 06:46:01;;;;;;;6.05;5.45;;;;;;;;;;5057645;28;20068;-84
2021/08/28 06:49:08;;;;;;;6.40;5.28;;;;;;;;;;5057971;28;20090;-85
2021/08/28 06:51:54;;;;;;;6.45;5.25;;;;;;;;;;5038579;28;20120;-84
2021/08/28 06:54:39;;;;;;;6.35;5.32;;;;;;;;;;5056690;28;20525;-84
2021/08/28 06:57:27;;;;;;;6.40;4.80;;;;;;;;;;5057876;28;20041;-84
2021/08/28 07:00:12;;;;;;;5.82;4.72;;;;;;;;;;5044634;28;20035;-84
2021/08/28 07:02:58;;;;;;;4.50;3.97;;;;;;;;;;5056185;28;20493;-86
2021/08/28 07:05:24;;;;;;;4.43;4.03;;;;;;;;;;5056703;28;20029;-85
2021/08/28 07:07:52;;;;;;;8.80;4.90;;;;;;;;;;5033060;28;20029;-85
2021/08/28 07:10:18;;;;;;;5.85;4.95;;;;;;;;;;5019117;28;20033;-82
2021/08/28 07:12:47;;;;;;;4.38;3.85;;;;;;;;;;5028062;28;20037;-83
2021/08/28 07:15:12;;;;;;;12.98;3.63;;;;;;;;;;5045664;28;20025;-82
2021/08/28 07:17:51;;;;;;;6.03;3.50;;;;;;;;;;5031022;28;20032;-81
2021/08/28 07:20:16;;;;;;;3.33;2.67;;;;;;;;;;5026707;28;20038;-82
2021/08/28 07:22:42;;;;;;;3.40;2.60;;;;;;;;;;5024831;28;20172;-83
2021/08/28 07:25:27;;;;;;;2.95;2.60;;;;;;;;;;5039718;28;20438;-83
2021/08/28 07:27:54;;;;;;;3.13;2.70;;;;;;;;;;5023673;28;20041;-84
2021/08/28 07:30:41;;;;;;;;;;;;;;;;;;5041865;28;20064;-84
2021/08/28 07:33:06;;;;;;;4.72;2.80;;;;;;;;;;5022085;28;19921;-79
2021/08/28 07:35:32;;;;;;;3.30;2.47;;;;;;;;;;5022046;28;20501;-83
2021/08/28 07:37:58;;;;;;;2.60;2.40;;;;;;;;;;5027531;28;20045;-82
2021/08/28 07:40:25;;;;;;;3.20;2.90;;;;;;;;;;5057277;28;20048;-81
2021/08/28 07:42:53;;;;;;;2.97;2.70;;;;;;;;;;5058092;28;20025;-80
2021/08/28 07:45:21;;;;;;;4.43;2.50;;;;;;;;;;5040991;28;20506;-81
2021/08/28 07:48:01;;;;;;;5.53;2.55;;;;;;;;;;5043268;28;20033;-79
2021/08/28 07:50:27;;;;;;;2.30;1.73;;;;;;;;;;5056541;28;20120;-80
2021/08/28 07:52:52;;;;;;;2.72;2.20;;;;;;;;;;5056502;28;20047;-80
2021/08/28 07:55:18;;;;;;;2.92;2.58;;;;;;;;;;5056017;28;20037;-83
2021/08/28 07:57:44;;;;;;;3.88;2.35;;;;;;;;;;5039527;28;20132;-78
2021/08/28 08:00:12;;;;;;;2.42;1.92;;;;;;;;;;5037894;28;20033;-78
2021/08/28 08:02:39;;;;;;;2.80;2.50;;;;;;;;;;5061751;28;20120;-78
2021/08/28 08:05:09;;;;;;;2.38;2.05;;;;;;;;;;5039901;28;20032;-78
2021/08/28 08:07:53;;;;;;;2.47;1.65;;;;;;;;;;5051003;28;20048;-79
2021/08/28 08:10:42;;;;;;;1.52;1.42;;;;;;;;;;5034786;28;20087;-79
2021/08/28 08:13:46;;;;;;;1.40;1.30;;;;;;;;;;5032790;28;20041;-79
2021/08/28 08:16:32;;;;;;;1.20;1.05;;;;;;;;;;5034183;28;20403;-77
2021/08/28 08:19:13;;;;;;;1.15;0.90;;;;;;;;;;5018209;28;20047;-76
2021/08/28 08:22:08;;;;;;;1.58;0.88;;;;;;;;;;5035723;28;20049;-78
2021/08/28 08:24:43;;;;;;;0.98;0.90;;;;;;;;;;5033288;28;20030;-76
2021/08/28 08:27:31;;;;;;;6.00;1.95;;;;;;;;;;5032560;28;20124;-78
2021/08/28 08:30:11;;;;;;;11.10;2.53;;;;;;;;;;5017678;28;20040;-77
2021/08/28 08:32:48;;;;;;;2.65;1.20;;;;;;;;;;5016694;28;20049;-77
2021/08/28 08:35:14;;;;;;;215.57;12.70;;;;;;;;;;5015534;28;20171;-77
2021/08/28 08:37:41;;;;;;;17.65;1.83;;;;;;;;;;5032379;28;20491;-78
2021/08/28 08:40:07;;;;;;;21.10;1.80;;;;;;;;;;5032941;28;20036;-77
2021/08/28 08:42:39;;;;;;;9.88;1.30;;;;;;;;;;5032254;28;20029;-78
2021/08/28 08:45:05;;;;;;;2.65;0.82;;;;;;;;;;5016064;28;20032;-77
2021/08/28 08:47:35;;;;;;;7.03;1.05;;;;;;;;;;5032693;28;20083;-78
2021/08/28 08:50:01;;;;;;;3.92;1.10;;;;;;;;;;5032893;28;20038;-77
2021/08/28 08:52:40;;;;;;;3.90;0.68;;;;;;;;;;5032483;28;20427;-77
2021/08/28 08:55:38;;;;;;;4.88;0.80;;;;;;;;;;5032595;28;20709;-78
2021/08/28 08:58:03;;;;;;;9.10;0.63;;;;;;;;;;5031793;28;20098;-77
2021/08/28 09:00:32;;;;;;;4.47;0.90;;;;;;;;;;5016087;28;20113;-77
2021/08/28 09:03:16;;;;;;;2.60;0.95;;;;;;;;;;5030625;28;20549;-77
2021/08/28 09:05:44;;;;;;;5.32;0.98;;;;;;;;;;5031883;28;20029;-77
2021/08/28 09:08:11;;;;;;;6.45;0.88;;;;;;;;;;5016826;28;20558;-77
2021/08/28 09:10:37;;;;;;;4.47;0.88;;;;;;;;;;5016199;28;20428;-77
2021/08/28 09:13:18;;;;;;;5.95;1.00;;;;;;;;;;5034130;28;20037;-77
2021/08/28 09:15:57;;;;;;;13.55;1.08;;;;;;;;;;5017272;28;20095;-77
2021/08/28 09:18:24;;;;;;;2.60;1.20;;;;;;;;;;5016279;28;20088;-78
2021/08/28 09:20:50;;;;;;;3.33;1.50;;;;;;;;;;5032661;28;20028;-77
2021/08/28 09:23:17;;;;;;;2.25;1.05;;;;;;;;;;5031892;28;20029;-78
2021/08/28 09:25:48;;;;;;;4.47;1.00;;;;;;;;;;5032875;28;20084;-79
2021/08/28 09:28:17;;;;;;;4.40;1.00;;;;;;;;;;5018462;28;20120;-79
2021/08/28 09:30:45;;;;;;;0.70;0.70;;;;;;;;;;5024111;28;20036;-79
2021/08/28 09:33:19;;;;;;;0.80;0.80;;;;;;;;;;5041723;28;20080;-79
2021/08/28 09:35:51;;;;;;;1.13;0.90;;;;;;;;;;5038452;28;20045;-78
2021/08/28 09:38:19;;;;;;;2.75;1.00;;;;;;;;;;5021982;28;20033;-82
2021/08/28 09:41:00;;;;;;;5.05;1.17;;;;;;;;;;5025340;28;20402;-80
2021/08/28 09:43:27;;;;;;;6.57;1.25;;;;;;;;;;5028699;28;20037;-82
2021/08/28 09:45:55;;;;;;;4.07;0.90;;;;;;;;;;5044239;28;20125;-80
2021/08/28 09:48:29;;;;;;;1.30;0.88;;;;;;;;;;5044036;28;20037;-80
2021/08/28 09:50:59;;;;;;;7.10;1.02;;;;;;;;;;5043390;28;20063;-78
2021/08/28 09:53:29;;;;;;;4.45;1.05;;;;;;;;;;5049624;28;20040;-78
2021/08/28 09:55:57;;;;;;;2.10;0.93;;;;;;;;;;5029803;28;20079;-79
2021/08/28 09:58:27;;;;;;;5.95;1.67;;;;;;;;;;5059440;28;20033;-81
2021/08/28 10:00:53;;;;;;;1.98;0.90;;;;;;;;;;5042671;28;20094;-79
2021/08/28 10:03:25;;;;;;;1.73;0.88;;;;;;;;;;5061917;28;20033;-79
2021/08/28 10:05:52;;;;;;;3.35;1.35;;;;;;;;;;5036341;28;20029;-80
2021/08/28 10:08:20;;;;;;;164.25;10.60;;;;;;;;;;5031090;28;20060;-79
2021/08/28 10:10:46;;;;;;;69.05;6.63;;;;;;;;;;5056055;28;20534;-81
2021/08/28 10:13:11;;;;;;;52.55;5.32;;;;;;;;;;5047672;28;20041;-80
2021/08/28 10:15:41;;;;;;;18.75;2.20;;;;;;;;;;5048713;28;20482;-81
2021/08/28 10:18:08;;;;;;;9.73;1.55;;;;;;;;;;5046670;28;20078;-81
2021/08/28 10:20:34;;;;;;;6.22;1.00;;;;;;;;;;5063209;28;20040;-80
2021/08/28 10:23:03;;;;;;;3.20;0.80;;;;;;;;;;5045959;28;20041;-80
2021/08/28 10:25:31;;;;;;;10.32;1.20;;;;;;;;;;5062814;28;20033;-79
2021/08/28 10:28:01;;;;;;;7.78;1.13;;;;;;;;;;5057617;28;20118;-81
2021/08/28 10:30:27;;;;;;;2.70;0.75;;;;;;;;;;5057353;28;20032;-82
2021/08/28 10:32:53;;;;;;;7.55;1.00;;;;;;;;;;5048335;28;20044;-81
2021/08/28 10:35:20;;;;;;;0.80;0.80;;;;;;;;;;5064228;28;20044;-80
2021/08/28 10:37:49;;;;;;;1.15;0.70;;;;;;;;;;5047287;28;20037;-78
2021/08/28 10:40:21;;;;;;;1.17;0.90;;;;;;;;;;5059338;28;20041;-78
2021/08/28 10:42:49;;;;;;;0.90;0.75;;;;;;;;;;5042807;28;20108;-81
2021/08/28 10:45:15;;;;;;;1.50;0.85;;;;;;;;;;5028762;28;20041;-83
2021/08/28 10:48:07;;;;;;;1.70;1.52;;;;;;;;;;5024410;28;20025;-83
2021/08/28 10:50:39;;;;;;;1.48;0.88;;;;;;;;;;5024795;28;20033;-81
2021/08/28 10:53:05;;;;;;;2.38;1.48;;;;;;;;;;5043506;28;20099;-81
2021/08/28 10:55:47;;;;;;;3.47;1.30;;;;;;;;;;5043856;28;20081;-83
2021/08/28 10:58:26;;;;;;;2.10;0.70;;;;;;;;;;5045434;28;20033;-83
2021/08/28 11:00:55;;;;;;;14.73;1.60;;;;;;;;;;5026189;28;20037;-83
2021/08/28 11:03:31;;;;;;;10.40;0.80;;;;;;;;;;5027192;28;20034;-81
2021/08/28 11:06:15;;;;;;;1.95;0.65;;;;;;;;;;5022528;28;20029;-82
2021/08/28 11:08:45;;;;;;;2.47;0.68;;;;;;;;;;5024680;28;20037;-82
2021/08/28 11:11:38;;;;;;;3.50;0.60;;;;;;;;;;5040168;28;20671;-85
2021/08/28 11:14:05;;;;;;;2.33;0.55;;;;;;;;;;5024045;28;20038;-84
2021/08/28 11:16:39;;;;;;;0.57;0.40;;;;;;;;;;5061286;28;20187;-85
2021/08/28 11:19:27;;;;;;;4.65;0.60;;;;;;;;;;5061668;28;20036;-81
2021/08/28 11:21:55;;;;;;;3.83;2.03;;;;;;;;;;5060761;28;20112;-81
2021/08/28 11:24:26;;;;;;;22.38;2.10;;;;;;;;;;5047577;28;20128;-81
2021/08/28 11:26:54;;;;;;;3.95;0.80;;;;;;;;;;5065708;28;20032;-81
2021/08/28 11:29:30;;;;;;;5.78;0.73;;;;;;;;;;5042532;28;20037;-81
2021/08/28 11:32:20;;;;;;;3.42;0.70;;;;;;;;;;5043574;28;20052;-81
2021/08/28 11:34:53;;;;;;;0.88;0.65;;;;;;;;;;5043137;28;20091;-82
2021/08/28 11:37:31;;;;;;;2.55;0.63;;;;;;;;;;5041469;28;20033;-82
2021/08/28 11:40:22;;;;;;;12.63;0.82;;;;;;;;;;5048077;28;20037;-84
2021/08/28 11:42:48;;;;;;;3.88;0.80;;;;;;;;;;5044118;28;20051;-80
2021/08/28 11:45:16;;;;;;;3.67;0.50;;;;;;;;;;5051267;28;20067;-81
2021/08/28 11:47:42;;;;;;;2.00;0.30;;;;;;;;;;5021567;28;20048;-85
2021/08/28 11:50:07;;;;;;;0.80;0.65;;;;;;;;;;5019470;28;20037;-86
2021/08/28 11:52:34;;;;;;;1.35;0.43;;;;;;;;;;5039929;28;20053;-85
2021/08/28 11:55:01;;;;;;;1.23;0.88;;;;;;;;;;5036474;28;20116;-85
2021/08/28 11:57:26;;;;;;;1.52;0.70;;;;;;;;;;5018942;28;20483;-88
2021/08/28 11:59:52;;;;;;;2.67;0.32;;;;;;;;;;5033025;28;20124;-87
2021/08/28 12:02:19;;;;;;;0.55;0.52;;;;;;;;;;5033634;28;20052;-87
2021/08/28 12:04:46;;;;;;;0.47;0.43;;;;;;;;;;5033737;28;20118;-86
2021/08/28 12:07:12;;;;;;;0.60;0.40;;;;;;;;;;5016270;28;20124;-86
2021/08/28 12:09:39;;;;;;;4.00;1.20;;;;;;;;;;5016278;28;20057;-88
2021/08/28 12:12:05;;;;;;;3.05;1.00;;;;;;;;;;5021991;28;20107;-85
2021/08/28 12:14:32;;;;;;;3.30;0.57;;;;;;;;;;5038067;28;20475;-84
2021/08/28 12:16:59;;;;;;;3.05;0.30;;;;;;;;;;5056019;28;20063;-86
2021/08/28 12:19:26;;;;;;;0.47;0.32;;;;;;;;;;5037931;28;20025;-81
2021/08/28 12:22:01;;;;;;;0.38;0.38;;;;;;;;;;5040305;28;20131;-83
2021/08/28 12:24:38;;;;;;;0.60;0.40;;;;;;;;;;5039974;28;20081;-84
2021/08/28 12:27:11;;;;;;;5.00;1.17;;;;;;;;;;5040748;28;20043;-80
2021/08/28 12:29:40;;;;;;;2.13;0.57;;;;;;;;;;5041606;28;20039;-81
2021/08/28 12:32:10;;;;;;;1.23;0.77;;;;;;;;;;5039185;28;20472;-79
2021/08/28 12:34:39;;;;;;;0.85;0.40;;;;;;;;;;5044273;28;20033;-79
2021/08/28 12:37:14;;;;;;;5.55;1.13;;;;;;;;;;5041163;28;20123;-80
2021/08/28 12:39:43;;;;;;;1.13;0.40;;;;;;;;;;5057375;28;20411;-81
2021/08/28 12:42:13;;;;;;;1.70;0.75;;;;;;;;;;5043827;28;20041;-82
2021/08/28 12:44:42;;;;;;;8.65;0.77;;;;;;;;;;5041123;28;20502;-80
2021/08/28 12:47:10;;;;;;;2.47;0.70;;;;;;;;;;5058694;28;20044;-80
2021/08/28 12:49:37;;;;;;;2.13;0.65;;;;;;;;;;5058054;28;20040;-81
2021/08/28 12:52:07;;;;;;;7.35;0.57;;;;;;;;;;5057369;28;20029;-79
2021/08/28 12:54:37;;;;;;;0.93;0.38;;;;;;;;;;5040971;28;20057;-80
2021/08/28 12:57:11;;;;;;;1.23;0.85;;;;;;;;;;5039852;28;20467;-78
2021/08/28 13:00:01;;;;;;;0.75;0.70;;;;;;;;;;5039204;28;20398;-82
2021/08/28 13:02:27;;;;;;;2.88;0.80;;;;;;;;;;5029836;28;20131;-78
2021/08/28 13:04:54;;;;;;;2.95;0.60;;;;;;;;;;5035744;28;20040;-77
2021/08/28 13:07:21;;;;;;;2.05;0.68;;;;;;;;;;5053160;28;20033;-77
2021/08/28 13:09:53;;;;;;;0.77;0.40;;;;;;;;;;5016072;28;20566;-78
2021/08/28 13:12:37;;;;;;;7.82;0.70;;;;;;;;;;5032595;28;20380;-77
2021/08/28 13:15:03;;;;;;;1.08;0.77;;;;;;;;;;5032034;28;20102;-78
2021/08/28 13:17:29;;;;;;;8.10;1.10;;;;;;;;;;5032929;28;20356;-79
2021/08/28 13:20:08;;;;;;;23.27;0.93;;;;;;;;;;5032697;28;20033;-77
2021/08/28 13:22:39;;;;;;;7.65;0.90;;;;;;;;;;5017069;28;20481;-77
2021/08/28 13:25:07;;;;;;;4.03;0.77;;;;;;;;;;5032544;28;20125;-77
2021/08/28 13:27:40;;;;;;;1.45;0.50;;;;;;;;;;5033321;28;20084;-77
2021/08/28 13:30:24;;;;;;;1.67;0.70;;;;;;;;;;5035534;28;20060;-80
2021/08/28 13:32:52;;;;;;;1.00;0.60;;;;;;;;;;5019113;28;20136;-77
2021/08/28 13:35:17;;;;;;;0.98;0.55;;;;;;;;;;5017138;28;20494;-78
2021/08/28 13:37:43;;;;;;;0.73;0.55;;;;;;;;;;5020885;28;20482;-77
2021/08/28 13:40:09;;;;;;;1.30;0.60;;;;;;;;;;5050720;28;20142;-76
2021/08/28 13:42:34;;;;;;;1.15;1.05;;;;;;;;;;5013664;28;20629;-76
2021/08/28 13:45:00;;;;;;;0.98;0.90;;;;;;;;;;5048895;28;20116;-79
2021/08/28 13:47:25;;;;;;;1.00;0.90;;;;;;;;;;5058178;28;20447;-82
2021/08/28 13:49:52;;;;;;;5.13;1.30;;;;;;;;;;5027526;28;20100;-83
2021/08/28 13:52:17;;;;;;;4.50;1.27;;;;;;;;;;5037326;28;20044;-83
2021/08/28 13:54:43;;;;;;;5.43;0.95;;;;;;;;;;5057829;28;20045;-80
2021/08/28 13:57:08;;;;;;;1.20;1.08;;;;;;;;;;5040012;28;20033;-80
2021/08/28 13:59:34;;;;;;;1.13;0.90;;;;;;;;;;5034770;28;20036;-80
2021/08/28 14:02:00;;;;;;;2.03;1.30;;;;;;;;;;5024916;28;20033;-79
2021/08/28 14:04:25;;;;;;;2.00;1.38;;;;;;;;;;5024117;28;20503;-80
2021/08/28 14:06:51;;;;;;;1.77;1.42;;;;;;;;;;5021800;28;20045;-80
2021/08/28 14:09:17;;;;;;;4.50;1.23;;;;;;;;;;5076987;28;20036;-80
2021/08/28 14:11:42;;;;;;;1.27;1.17;;;;;;;;;;5081879;28;20036;-80
2021/08/28 14:14:07;;;;;;;3.85;1.30;;;;;;;;;;5080924;28;20046;-80
2021/08/28 14:16:33;;;;;;;1.80;1.20;;;;;;;;;;5080909;28;20470;-80
2021/08/28 14:18:59;;;;;;;4.03;1.40;;;;;;;;;;5080890;28;20463;-79
2021/08/28 14:21:26;;;;;;;2.25;1.50;;;;;;;;;;5063094;28;20064;-78
2021/08/28 14:23:53;;;;;;;3.10;1.27;;;;;;;;;;5039710;28;20037;-80
2021/08/28 14:26:18;;;;;;;6.18;2.67;;;;;;;;;;5039463;28;20038;-79
2021/08/28 14:28:44;;;;;;;3.53;1.92;;;;;;;;;;5040784;28;20182;-81
2021/08/28 14:31:10;;;;;;;2.30;1.85;;;;;;;;;;5026575;28;20037;-85
2021/08/28 14:33:36;;;;;;;6.97;3.83;;;;;;;;;;5049638;28;20033;-84
2021/08/28 14:36:02;;;;;;;2.58;1.60;;;;;;;;;;5050345;28;20033;-83
2021/08/28 14:38:27;;;;;;;0.98;0.95;;;;;;;;;;5030218;28;20044;-81
2021/08/28 14:40:52;;;;;;;1.70;1.40;;;;;;;;;;5025538;28;20099;-81
2021/08/28 14:43:18;;;;;;;2.10;1.48;;;;;;;;;;5036882;28;20064;-81
2021/08/28 14:45:44;;;;;;;1.40;1.17;;;;;;;;;;5060236;28;20060;-81
2021/08/28 14:48:10;;;;;;;1.60;1.23;;;;;;;;;;5052755;28;20065;-81
2021/08/28 14:50:36;;;;;;;2.25;1.30;;;;;;;;;;5024318;28;20033;-80
2021/08/28 14:53:04;;;;;;;3.85;1.70;;;;;;;;;;5023286;28;20037;-81
2021/08/28 14:55:30;;;;;;;2.15;1.58;;;;;;;;;;5024260;28;20693;-81
2021/08/28 14:57:55;;;;;;;2.08;1.40;;;;;;;;;;5041467;28;20037;-81
2021/08/28 15:00:21;;;;;;;1.55;1.20;;;;;;;;;;5024620;28;20037;-81
2021/08/28 15:02:46;;;;;;;1.13;1.00;;;;;;;;;;5041762;28;20053;-81
2021/08/28 15:05:11;;;;;;;3.17;1.30;;;;;;;;;;5024664;28;20030;-81
2021/08/28 15:07:37;;;;;;;1.65;1.10;;;;;;;;;;5046012;28;20086;-81